Time;durP1;ratioP1;P1;durP2;ratioP2;P2;SDS_P1;SDS_P2;PMS_P1;PMS_P2;Temp;Humidity;BMP_temperature;BMP_pressure;BME280_temperature;BME280_humidity;BME280_pressure;Samples;Min_cycle;Max_cycle;Signal;HPM_P1;HPM_P2
2022/05/15 04:02:56;;;;;;;8.80;4.10;;;7.40;96.30;;;;;;4915988;29;20484;-75
2022/05/15 04:05:22;;;;;;;8.63;4.60;;;8.20;96.30;;;;;;4900390;29;20466;-76
2022/05/15 04:07:50;;;;;;;8.53;3.53;;;8.70;96.30;;;;;;4916582;29;20212;-74
2022/05/15 04:10:19;;;;;;;9.30;6.30;;;8.90;96.30;;;;;;4917188;29;20212;-74
2022/05/15 04:12:44;;;;;;;17.63;12.23;;;9.70;96.30;;;;;;4917140;29;20467;-75
2022/05/15 04:15:11;;;;;;;18.50;7.07;;;10.30;96.30;;;;;;4917962;29;20499;-75
2022/05/15 04:17:41;;;;;;;7.10;3.63;;;10.30;96.30;;;;;;4915438;29;20204;-77
2022/05/15 04:20:07;;;;;;;7.60;2.93;;;10.70;96.30;;;;;;4917573;29;20765;-76
2022/05/15 04:45:51;;;;;;;11.70;2.90;;;14.00;96.30;;;;;;5570189;23;20499;-77
2022/05/15 04:48:16;;;;;;;4.93;3.10;;;14.80;96.30;;;;;;4973378;28;20429;-76
2022/05/15 04:50:43;;;;;;;7.33;2.90;;;15.10;96.30;;;;;;4973952;28;20233;-77
2022/05/15 04:53:09;;;;;;;9.13;3.13;;;14.70;96.30;;;;;;4973966;28;20171;-76
2022/05/15 04:55:35;;;;;;;10.60;3.33;;;15.50;96.30;;;;;;4973850;28;20480;-76
2022/05/15 04:58:01;;;;;;;8.17;3.73;;;16.50;95.80;;;;;;4956658;28;20170;-74
2022/05/15 05:00:26;;;;;;;7.70;2.77;;;17.80;89.80;;;;;;4984870;23;20517;-74
2022/05/15 05:02:52;;;;;;;5.13;2.90;;;17.80;89.70;;;;;;4973413;28;20516;-75
2022/05/15 05:05:18;;;;;;;9.70;2.77;;;16.60;92.60;;;;;;4973628;28;20176;-77
2022/05/15 05:07:44;;;;;;;12.07;3.20;;;16.80;92.80;;;;;;4973147;28;20233;-77
2022/05/15 05:10:11;;;;;;;4.80;3.07;;;16.70;92.10;;;;;;4973684;28;20413;-74
2022/05/15 05:12:37;;;;;;;7.87;3.10;;;17.40;90.70;;;;;;4973428;28;20269;-75
2022/05/15 05:15:04;;;;;;;5.40;2.90;;;17.50;90.10;;;;;;4973653;28;20822;-75
2022/05/15 05:17:29;;;;;;;13.70;3.70;;;17.20;91.20;;;;;;4973028;28;20670;-74
2022/05/15 05:19:55;;;;;;;6.73;2.73;;;17.70;90.90;;;;;;4973330;28;20418;-74
2022/05/15 05:22:20;;;;;;;6.83;2.93;;;18.10;89.10;;;;;;4973400;28;20340;-74
2022/05/15 05:24:46;;;;;;;5.30;3.27;;;18.30;88.50;;;;;;4973474;28;20181;-77
2022/05/15 05:27:12;;;;;;;10.90;3.07;;;18.70;87.00;;;;;;4973404;28;20185;-74
2022/05/15 05:29:37;;;;;;;5.30;2.70;;;18.50;87.60;;;;;;4973011;28;20634;-74
2022/05/15 05:32:03;;;;;;;6.03;2.87;;;18.40;88.00;;;;;;4973252;28;20276;-75
2022/05/15 05:34:29;;;;;;;5.33;2.80;;;18.30;88.30;;;;;;4972625;28;20269;-75
2022/05/15 05:36:55;;;;;;;10.70;3.03;;;18.50;87.90;;;;;;4973131;28;20202;-77
2022/05/15 05:39:21;;;;;;;6.70;2.47;;;19.00;86.60;;;;;;4972696;28;20654;-75
2022/05/15 05:41:47;;;;;;;4.23;2.77;;;19.70;84.60;;;;;;4973228;28;20277;-75
2022/05/15 05:44:12;;;;;;;4.20;2.60;;;20.30;83.00;;;;;;4973137;28;20501;-75
2022/05/15 05:46:38;;;;;;;9.47;3.20;;;20.10;83.40;;;;;;4973033;28;20655;-75
2022/05/15 05:49:03;;;;;;;6.63;3.40;;;20.60;82.60;;;;;;4972610;28;20693;-75
2022/05/15 05:51:29;;;;;;;6.63;2.93;;;20.10;83.60;;;;;;4972975;28;20198;-75
2022/05/15 05:53:54;;;;;;;8.27;2.87;;;20.00;84.70;;;;;;4973096;28;20174;-75
2022/05/15 05:56:20;;;;;;;6.87;2.70;;;20.60;82.80;;;;;;4973061;28;20206;-75
2022/05/15 05:58:45;;;;;;;5.27;2.40;;;21.20;81.10;;;;;;4972397;28;20205;-78
2022/05/15 06:01:11;;;;;;;5.67;2.80;;;21.70;79.40;;;;;;4972627;28;20263;-75
2022/05/15 06:06:21;;;;;;;7.40;3.13;;;21.70;81.00;;;;;;4973024;28;20223;-75
2022/05/15 06:08:46;;;;;;;7.40;3.50;;;20.80;83.20;;;;;;4972416;28;20967;-75
2022/05/15 06:11:12;;;;;;;7.50;3.23;;;22.20;78.80;;;;;;4955401;28;20561;-77
2022/05/15 06:13:39;;;;;;;7.93;2.83;;;22.50;77.90;;;;;;4972931;28;20685;-75
2022/05/15 06:16:05;;;;;;;6.50;3.10;;;22.40;80.00;;;;;;4972849;28;20193;-76
2022/05/15 06:18:31;;;;;;;6.93;3.00;;;22.80;78.40;;;;;;4972221;28;20413;-76
2022/05/15 06:20:57;;;;;;;5.63;2.90;;;23.20;78.30;;;;;;4972776;28;20483;-75
2022/05/15 06:23:22;;;;;;;6.87;3.30;;;22.90;77.40;;;;;;4972844;28;20497;-76
2022/05/15 06:25:48;;;;;;;7.27;3.30;;;23.00;77.90;;;;;;4972879;28;20637;-75
2022/05/15 06:28:13;;;;;;;8.13;2.77;;;23.70;75.80;;;;;;4972230;28;20618;-75
2022/05/15 06:30:39;;;;;;;7.97;2.77;;;24.60;74.40;;;;;;4974162;28;20208;-79
2022/05/15 06:33:06;;;;;;;8.20;3.20;;;24.60;73.40;;;;;;4975849;28;20184;-76
2022/05/15 06:35:32;;;;;;;4.43;3.00;;;22.90;75.80;;;;;;4976328;28;20571;-78
2022/05/15 06:38:02;;;;;;;9.97;3.07;;;24.40;74.60;;;;;;4975245;28;20925;-77
2022/05/15 06:40:27;;;;;;;6.37;3.17;;;23.00;77.30;;;;;;4974305;28;20461;-77
2022/05/15 06:42:53;;;;;;;10.97;3.43;;;23.60;77.20;;;;;;4974289;28;20421;-79
2022/05/15 06:45:18;;;;;;;8.27;3.40;;;23.60;74.40;;;;;;4974628;28;20189;-77
2022/05/15 06:47:43;;;;;;;11.20;3.00;;;25.40;70.40;;;;;;4977136;28;20178;-77
2022/05/15 06:50:10;;;;;;;7.60;2.90;;;25.80;68.80;;;;;;4977280;28;20174;-76
2022/05/15 06:52:37;;;;;;;8.00;3.00;;;24.30;71.20;;;;;;4977022;28;20184;-78
2022/05/15 06:55:08;;;;;;;8.63;2.90;;;24.60;71.30;;;;;;4972037;28;20934;-79
2022/05/15 06:57:33;;;;;;;6.43;2.70;;;24.80;69.80;;;;;;4947721;29;20457;-78
2022/05/15 07:00:04;;;;;;;8.60;2.90;;;25.20;69.60;;;;;;4955351;29;20506;-79
2022/05/15 07:02:29;;;;;;;7.63;2.93;;;24.20;70.60;;;;;;4969133;28;20300;-76
2022/05/15 07:04:56;;;;;;;8.50;2.77;;;23.80;70.60;;;;;;4975674;28;20504;-76
2022/05/15 07:07:22;;;;;;;12.40;3.33;;;24.10;72.50;;;;;;4958698;28;20174;-75
2022/05/15 07:09:48;;;;;;;6.87;2.80;;;25.40;68.90;;;;;;4966231;28;20829;-78
2022/05/15 07:12:13;;;;;;;12.80;3.37;;;24.90;70.30;;;;;;4956476;29;20429;-77
2022/05/15 07:14:39;;;;;;;8.63;3.13;;;26.00;66.90;;;;;;4956350;29;20185;-76
2022/05/15 07:17:05;;;;;;;7.33;2.53;;;26.10;68.00;;;;;;4956328;29;20202;-76
2022/05/15 07:19:31;;;;;;;5.80;2.60;;;25.40;68.40;;;;;;4956126;29;20418;-77
2022/05/15 07:21:57;;;;;;;11.60;2.87;;;26.30;64.50;;;;;;4951473;29;20206;-75
2022/05/15 07:24:22;;;;;;;8.80;2.60;;;24.50;68.40;;;;;;4956242;29;20174;-76
2022/05/15 07:26:49;;;;;;;7.73;3.17;;;24.40;69.00;;;;;;4956427;29;20186;-74
2022/05/15 07:29:15;;;;;;;7.70;2.53;;;24.40;69.00;;;;;;4956196;29;20182;-75
2022/05/15 07:31:41;;;;;;;8.97;3.43;;;23.80;72.80;;;;;;4956295;29;20476;-74
2022/05/15 07:34:07;;;;;;;8.87;2.67;;;25.60;66.60;;;;;;4956305;29;20552;-74
2022/05/15 07:36:33;;;;;;;17.40;4.00;;;25.20;66.90;;;;;;4956212;29;20194;-74
2022/05/15 07:38:59;;;;;;;11.80;3.70;;;24.90;68.90;;;;;;4956061;29;20428;-74
2022/05/15 07:41:25;;;;;;;12.40;3.87;;;24.80;69.10;;;;;;4956164;29;20222;-74
2022/05/15 07:43:50;;;;;;;12.03;3.73;;;25.10;72.50;;;;;;4954676;28;20211;-74
2022/05/15 07:46:16;;;;;;;8.93;3.23;;;26.20;68.10;;;;;;4954983;28;20213;-76
2022/05/15 07:48:41;;;;;;;8.67;3.40;;;27.00;69.30;;;;;;4948599;28;20603;-76
2022/05/15 07:51:07;;;;;;;10.93;3.00;;;26.70;64.60;;;;;;4969520;28;20676;-74
2022/05/15 07:53:32;;;;;;;12.37;2.80;;;27.40;67.30;;;;;;4955108;28;20194;-76
2022/05/15 07:56:09;;;;;;;14.53;3.60;;;27.50;65.80;;;;;;4963163;28;20229;-75
2022/05/15 07:58:36;;;;;;;7.33;2.80;;;27.00;66.40;;;;;;4970894;28;20177;-78
2022/05/15 08:01:04;;;;;;;13.17;3.00;;;26.40;66.90;;;;;;4972269;28;20457;-75
2022/05/15 08:03:33;;;;;;;14.37;3.97;;;26.40;67.60;;;;;;4968250;28;20429;-76
2022/05/15 08:08:44;;;;;;;6.80;2.80;;;;;;;;;;4971907;28;20512;-76
2022/05/15 08:11:10;;;;;;;12.27;3.80;;;26.20;65.60;;;;;;4974976;28;20464;-74
2022/05/15 08:13:36;;;;;;;15.03;3.60;;;26.00;70.80;;;;;;4975068;28;20192;-74
2022/05/15 08:16:01;;;;;;;12.93;3.30;;;25.00;67.00;;;;;;4972077;28;20284;-76
2022/05/15 08:23:58;;;;;;;22.23;3.80;;;26.70;65.60;;;;;;4956767;29;20804;-77
2022/05/15 08:26:24;;;;;;;11.40;3.33;;;25.60;68.30;;;;;;4959713;29;20437;-78
2022/05/15 08:28:50;;;;;;;14.60;4.07;;;25.90;67.00;;;;;;4941709;29;20414;-77
2022/05/15 08:31:20;;;;;;;13.77;3.03;;;24.40;68.00;;;;;;4956819;29;20430;-76
2022/05/15 08:33:46;;;;;;;11.13;3.70;;;24.10;67.10;;;;;;4960386;28;20200;-76
2022/05/15 08:36:12;;;;;;;10.40;3.70;;;24.80;67.00;;;;;;4965348;28;20444;-76
2022/05/15 08:38:38;;;;;;;10.00;3.67;;;24.00;69.60;;;;;;4965157;28;20472;-75
2022/05/15 08:41:09;;;;;;;14.63;3.70;;;23.60;69.50;;;;;;4964078;28;20677;-74
2022/05/15 08:43:45;;;;;;;11.70;3.70;;;23.00;71.20;;;;;;4963017;28;20518;-74
2022/05/15 08:46:25;;;;;;;8.87;3.70;;;23.90;70.40;;;;;;4963197;28;20437;-75
2022/05/15 08:48:55;;;;;;;10.97;3.60;;;24.00;70.00;;;;;;4964913;28;20410;-75
2022/05/15 08:51:21;;;;;;;9.73;2.90;;;24.70;71.40;;;;;;4963709;28;20446;-76
2022/05/15 08:53:49;;;;;;;9.17;3.47;;;23.20;71.00;;;;;;4965668;28;20766;-74
2022/05/15 08:56:16;;;;;;;11.97;3.53;;;23.70;70.90;;;;;;4962531;28;20230;-75
2022/05/15 08:58:56;;;;;;;12.77;3.63;;;23.90;71.60;;;;;;4964286;28;20417;-75
2022/05/15 09:01:24;;;;;;;14.07;4.00;;;24.70;73.70;;;;;;4963378;28;21017;-74
2022/05/15 09:03:51;;;;;;;13.33;3.40;;;24.90;70.10;;;;;;4957949;28;20423;-75
2022/05/15 09:06:28;;;;;;;10.27;3.40;;;25.70;75.90;;;;;;4963813;28;20781;-74
2022/05/15 09:09:23;;;;;;;11.53;3.50;;;25.70;69.70;;;;;;4962774;28;20417;-75
2022/05/15 09:11:55;;;;;;;13.30;4.43;;;25.40;70.90;;;;;;4967577;28;20449;-76
2022/05/15 09:14:34;;;;;;;15.77;4.20;;;25.90;74.30;;;;;;4969560;28;20417;-75
2022/05/15 09:17:18;;;;;;;13.07;3.80;;;25.80;71.90;;;;;;4946441;28;20565;-75
2022/05/15 09:19:53;;;;;;;10.77;3.20;;;25.50;69.40;;;;;;4965021;28;20413;-74
2022/05/15 09:22:20;;;;;;;10.80;3.13;;;25.00;70.40;;;;;;4966900;28;20435;-76
2022/05/15 09:24:51;;;;;;;14.33;3.70;;;25.60;72.00;;;;;;4966029;28;20422;-73
2022/05/15 09:27:22;;;;;;;10.03;3.47;;;25.30;71.60;;;;;;4971383;28;20472;-73
2022/05/15 09:30:06;;;;;;;10.80;3.57;;;23.10;69.70;;;;;;4959368;28;20442;-73
2022/05/15 09:32:38;;;;;;;10.70;3.10;;;23.00;71.60;;;;;;4950197;29;20446;-74
2022/05/15 09:35:28;;;;;;;10.97;3.57;;;23.50;70.90;;;;;;4954334;29;20401;-73
2022/05/15 09:43:36;;;;;;;14.50;3.77;;;23.90;77.80;;;;;;4954461;29;20767;-75
2022/05/15 09:46:11;;;;;;;12.70;3.30;;;24.40;75.00;;;;;;4954145;28;20497;-73
2022/05/15 09:48:50;;;;;;;9.27;3.30;;;25.50;77.00;;;;;;4954055;28;20409;-72
2022/05/15 09:51:27;;;;;;;14.07;3.30;;;25.90;74.80;;;;;;4967240;28;20441;-73
2022/05/15 09:53:55;;;;;;;16.30;4.27;;;26.20;65.70;;;;;;4973117;28;20901;-75
2022/05/15 09:56:20;;;;;;;11.77;3.00;;;26.10;73.60;;;;;;4973046;28;20970;-76
2022/05/15 09:58:59;;;;;;;14.60;3.97;;;26.00;68.20;;;;;;4973042;28;20429;-74
2022/05/15 10:01:33;;;;;;;11.00;3.70;;;23.60;70.00;;;;;;4973248;28;20209;-75
2022/05/15 10:04:00;;;;;;;9.50;3.00;;;23.20;70.80;;;;;;4956176;28;20783;-75
2022/05/15 10:06:29;;;;;;;12.20;3.60;;;23.30;76.10;;;;;;4973061;28;20421;-73
2022/05/15 10:09:06;;;;;;;11.40;3.30;;;23.30;78.30;;;;;;4972930;28;20916;-73
2022/05/15 10:11:35;;;;;;;14.20;4.37;;;24.10;77.50;;;;;;4968242;28;20437;-73
2022/05/15 10:14:02;;;;;;;15.90;3.50;;;23.40;71.60;;;;;;4953776;29;20421;-73
2022/05/15 10:16:34;;;;;;;10.27;2.93;;;23.00;72.70;;;;;;4936249;29;20457;-73
2022/05/15 10:19:17;;;;;;;36.30;3.70;;;21.60;74.00;;;;;;4953542;29;20426;-73
2022/05/15 10:21:55;;;;;;;10.30;3.60;;;22.00;74.10;;;;;;4955426;28;20497;-73
2022/05/15 10:24:30;;;;;;;12.53;3.60;;;22.50;77.70;;;;;;4957519;29;20411;-76
2022/05/15 10:27:04;;;;;;;11.90;2.97;;;23.40;79.50;;;;;;4962025;28;20429;-73
2022/05/15 10:29:53;;;;;;;16.07;3.63;;;24.30;75.70;;;;;;4965600;28;20420;-73
2022/05/15 10:32:42;;;;;;;11.47;3.53;;;24.80;75.50;;;;;;4966691;28;20437;-74
2022/05/15 10:35:13;;;;;;;10.97;4.00;;;24.30;73.00;;;;;;4967809;28;20421;-75
2022/05/15 10:37:53;;;;;;;15.40;3.97;;;23.90;76.60;;;;;;4963920;28;21222;-75
2022/05/15 10:40:36;;;;;;;12.10;3.30;;;24.10;75.50;;;;;;4968529;28;20418;-75
2022/05/15 10:43:40;;;;;;;12.93;3.67;;;24.40;73.30;;;;;;4968607;28;20426;-75
2022/05/15 10:46:35;;;;;;;13.27;3.67;;;24.10;77.60;;;;;;4953944;29;21042;-75
2022/05/15 10:49:23;;;;;;;9.13;2.77;;;24.10;73.10;;;;;;4954792;29;20926;-75
2022/05/15 10:52:13;;;;;;;10.87;3.03;;;23.90;76.70;;;;;;4956849;29;20446;-75
2022/05/15 10:58:21;;;;;;;10.77;3.40;;;22.80;72.20;;;;;;4971683;28;20441;-73
2022/05/15 11:01:05;;;;;;;6.90;2.80;;;23.40;79.60;;;;;;4976619;28;20452;-74
2022/05/15 11:03:49;;;;;;;10.27;3.07;;;24.70;76.70;;;;;;4970708;28;20573;-74
2022/05/15 11:06:36;;;;;;;12.00;5.00;;;25.10;74.40;;;;;;4976665;28;20921;-74
2022/05/15 11:09:25;;;;;;;10.17;3.43;;;25.20;72.80;;;;;;4976079;28;20421;-74
2022/05/15 11:41:36;;;;;;;12.60;2.70;;;23.80;77.30;;;;;;4975086;28;20416;-74
2022/05/15 11:44:09;;;;;;;8.20;3.00;;;24.00;73.20;;;;;;4975660;28;20784;-74
2022/05/15 11:46:47;;;;;;;10.40;3.30;;;22.60;69.60;;;;;;4974969;28;20414;-74
2022/05/15 11:49:38;;;;;;;13.70;3.77;;;22.60;70.90;;;;;;4958378;28;20918;-74
2022/05/15 11:52:04;;;;;;;9.50;2.67;;;23.00;70.10;;;;;;4974306;28;20442;-74
2022/05/15 11:54:33;;;;;;;11.80;2.97;;;23.50;74.50;;;;;;4975086;28;20417;-74
2022/05/15 11:57:00;;;;;;;12.37;4.10;;;23.30;75.80;;;;;;4974907;28;20256;-74
2022/05/15 11:59:35;;;;;;;7.57;3.07;;;23.40;75.20;;;;;;4974762;28;20960;-75
2022/05/15 12:02:23;;;;;;;13.20;3.77;;;23.10;73.70;;;;;;4974901;28;20428;-74
2022/05/15 12:04:48;;;;;;;12.43;3.57;;;23.40;74.00;;;;;;4973592;28;20796;-74
2022/05/15 12:07:14;;;;;;;11.70;3.30;;;;;;;;;;4974804;28;20417;-74
2022/05/15 12:09:39;;;;;;;7.60;2.50;;;23.50;71.00;;;;;;4974615;28;20174;-74
2022/05/15 12:12:23;;;;;;;13.40;3.67;;;23.80;76.50;;;;;;4974700;28;20705;-74
2022/05/15 12:15:19;;;;;;;8.10;2.83;;;24.40;72.10;;;;;;4974737;28;20202;-74
2022/05/15 12:17:50;;;;;;;11.80;2.77;;;24.20;70.90;;;;;;4974493;28;20460;-74
2022/05/15 12:20:33;;;;;;;8.00;2.50;;;23.90;73.00;;;;;;4974052;28;20909;-74
2022/05/15 12:23:11;;;;;;;12.10;3.33;;;23.60;73.20;;;;;;4974761;28;20913;-74
2022/05/15 12:25:47;;;;;;;10.37;2.67;;;;;;;;;;4974417;28;20448;-74
2022/05/15 12:28:51;;;;;;;12.57;3.40;;;24.40;75.10;;;;;;4974066;28;20858;-74
2022/05/15 12:31:42;;;;;;;7.93;2.83;;;25.10;70.70;;;;;;4974515;28;20453;-74
2022/05/15 12:34:19;;;;;;;11.20;3.47;;;24.60;73.70;;;;;;4974523;28;20410;-74
2022/05/15 12:36:58;;;;;;;12.83;2.93;;;24.70;73.50;;;;;;4956915;28;20844;-74
2022/05/15 12:39:28;;;;;;;9.80;2.83;;;24.60;73.90;;;;;;4956814;28;20429;-74
2022/05/15 12:42:06;;;;;;;7.17;2.17;;;24.60;66.20;;;;;;4956870;28;20437;-75
2022/05/15 12:44:35;;;;;;;10.33;3.00;;;23.90;68.40;;;;;;4973863;28;20439;-76
2022/05/15 12:47:06;;;;;;;14.90;3.00;;;23.20;70.40;;;;;;4974093;28;20421;-74
2022/05/15 12:49:39;;;;;;;9.43;2.70;;;23.00;69.30;;;;;;4973951;28;20552;-75
2022/05/15 12:52:18;;;;;;;7.87;2.73;;;23.60;73.50;;;;;;4968885;28;20486;-74
2022/05/15 12:54:46;;;;;;;6.27;2.57;;;24.10;70.80;;;;;;4966140;28;20914;-75
2022/05/15 12:57:16;;;;;;;10.07;2.90;;;24.60;72.70;;;;;;4967834;28;20473;-74
2022/05/15 12:59:45;;;;;;;10.40;3.13;;;25.40;70.10;;;;;;4968437;28;20418;-75
2022/05/15 13:02:29;;;;;;;13.73;2.90;;;24.80;67.00;;;;;;4959979;28;20858;-74
2022/05/15 13:04:56;;;;;;;9.10;2.80;;;24.40;70.40;;;;;;4954796;29;20748;-74
2022/05/15 13:07:27;;;;;;;10.90;3.37;;;25.20;75.80;;;;;;4955222;28;20421;-74
2022/05/15 13:10:02;;;;;;;6.80;2.13;;;25.30;72.00;;;;;;4966935;28;20421;-74
2022/05/15 13:12:28;;;;;;;8.27;2.80;;;25.20;67.80;;;;;;4973511;28;20805;-75
2022/05/15 13:14:54;;;;;;;11.73;2.50;;;25.40;69.70;;;;;;4973740;28;20413;-76
2022/05/15 13:17:34;;;;;;;8.40;2.60;;;24.90;67.90;;;;;;4956272;28;20673;-74
2022/05/15 13:20:08;;;;;;;8.00;2.87;;;23.70;70.30;;;;;;4973705;28;20877;-74
2022/05/15 13:22:35;;;;;;;12.27;2.57;;;24.40;69.90;;;;;;4973408;28;20459;-75
2022/05/15 13:25:13;;;;;;;9.27;2.40;;;25.00;71.20;;;;;;4973579;28;20425;-75
2022/05/15 13:27:44;;;;;;;12.70;2.93;;;24.90;70.40;;;;;;4973225;28;20420;-75
2022/05/15 13:30:22;;;;;;;6.77;2.90;;;24.90;68.00;;;;;;4973669;28;20425;-75
2022/05/15 13:32:51;;;;;;;7.60;2.30;;;25.20;69.00;;;;;;4972321;28;20443;-75
2022/05/15 13:35:18;;;;;;;9.03;2.77;;;25.30;69.40;;;;;;4973524;28;20428;-76
2022/05/15 13:37:48;;;;;;;11.80;3.17;;;25.30;66.90;;;;;;4972822;28;20479;-76
2022/05/15 13:43:22;;;;;;;5.50;2.20;;;24.20;68.30;;;;;;4973526;28;20814;-75
2022/05/15 13:45:50;;;;;;;10.80;2.93;;;24.20;66.60;;;;;;4973460;28;20440;-75
2022/05/15 13:48:16;;;;;;;8.77;2.33;;;;;;;;;;4973163;28;20417;-75
2022/05/15 13:50:43;;;;;;;7.50;2.47;;;23.60;66.90;;;;;;4973762;28;20985;-76
2022/05/15 13:53:21;;;;;;;7.37;2.47;;;23.40;67.60;;;;;;4972669;28;20413;-74
2022/05/15 13:55:51;;;;;;;7.40;2.93;;;23.40;72.00;;;;;;4972332;28;20908;-74
2022/05/15 13:58:18;;;;;;;9.07;2.97;;;23.90;69.60;;;;;;4972590;28;20772;-74
2022/05/15 14:01:04;;;;;;;11.30;2.67;;;24.80;72.90;;;;;;4973078;28;20435;-74
2022/05/15 14:03:32;;;;;;;9.87;2.43;;;25.50;66.70;;;;;;4955961;28;20428;-76
2022/05/15 14:06:21;;;;;;;12.33;2.97;;;24.80;63.60;;;;;;4973207;28;20480;-76
2022/05/15 14:09:04;;;;;;;10.57;3.07;;;25.40;60.70;;;;;;4972611;28;20536;-76
2022/05/15 14:11:51;;;;;;;10.90;2.47;;;25.20;63.60;;;;;;4973354;28;20437;-77
2022/05/15 14:14:17;;;;;;;9.00;2.80;;;24.70;69.50;;;;;;4955792;28;20475;-76
2022/05/15 14:16:43;;;;;;;10.53;2.83;;;24.00;66.40;;;;;;4970015;28;20458;-76
2022/05/15 14:19:16;;;;;;;17.07;3.30;;;24.60;70.00;;;;;;4964715;28;20514;-77
2022/05/15 14:22:00;;;;;;;11.60;2.73;;;24.60;72.90;;;;;;4961893;28;20429;-77
2022/05/15 14:24:27;;;;;;;13.87;3.30;;;24.50;73.10;;;;;;4966238;28;20413;-76
2022/05/15 14:26:52;;;;;;;6.00;2.30;;;24.50;69.80;;;;;;4963408;28;20432;-76
2022/05/15 14:29:18;;;;;;;9.87;2.60;;;24.80;68.10;;;;;;4963001;28;20418;-76
2022/05/15 14:31:45;;;;;;;11.13;2.83;;;24.90;68.20;;;;;;4943606;29;20210;-76
2022/05/15 14:34:11;;;;;;;7.27;2.43;;;24.20;66.10;;;;;;4945270;28;20428;-76
2022/05/15 14:36:37;;;;;;;8.20;2.20;;;24.10;73.10;;;;;;4955109;28;20548;-76
2022/05/15 14:39:03;;;;;;;8.03;2.73;;;24.20;71.90;;;;;;4971912;28;20465;-75
2022/05/15 14:41:29;;;;;;;8.77;3.40;;;;;;;;;;4972402;28;20285;-75
2022/05/15 14:43:55;;;;;;;11.57;3.20;;;23.60;72.40;;;;;;4972732;28;20497;-75
2022/05/15 14:46:26;;;;;;;9.60;2.80;;;23.60;69.90;;;;;;4955435;28;20201;-75
2022/05/15 14:48:54;;;;;;;6.00;2.30;;;23.50;69.20;;;;;;4959657;28;20193;-76
2022/05/15 14:51:24;;;;;;;6.97;2.80;;;23.30;69.30;;;;;;4960367;28;20519;-76
2022/05/15 14:53:51;;;;;;;4.30;2.03;;;23.50;70.20;;;;;;4953409;28;20458;-76
2022/05/15 14:56:17;;;;;;;8.30;3.10;;;23.30;72.50;;;;;;4953389;29;20994;-75
2022/05/15 14:59:02;;;;;;;9.00;2.50;;;23.30;69.60;;;;;;4952915;29;20794;-75
2022/05/15 15:01:29;;;;;;;7.90;2.83;;;23.60;70.80;;;;;;4953349;29;20516;-76
2022/05/15 15:03:55;;;;;;;8.70;2.83;;;23.30;70.60;;;;;;4953399;29;20505;-75
2022/05/15 15:06:21;;;;;;;7.17;2.53;;;23.60;69.30;;;;;;4953239;28;20843;-76
2022/05/15 15:08:47;;;;;;;8.57;2.40;;;23.20;72.30;;;;;;4955957;28;20245;-76
2022/05/15 15:11:30;;;;;;;14.80;2.70;;;23.00;70.20;;;;;;4956572;29;20508;-74
2022/05/15 15:14:15;;;;;;;8.33;2.50;;;23.40;72.50;;;;;;4956727;29;20432;-73
2022/05/15 15:16:43;;;;;;;12.03;2.10;;;23.40;72.40;;;;;;4956632;29;20465;-73
2022/05/15 15:19:10;;;;;;;8.83;2.73;;;23.40;72.10;;;;;;4956313;29;21138;-73
2022/05/15 15:21:36;;;;;;;10.37;2.57;;;23.70;74.10;;;;;;4956289;29;20498;-74
2022/05/15 15:24:03;;;;;;;6.30;2.10;;;23.90;73.00;;;;;;4956531;29;20966;-73
2022/05/15 15:26:29;;;;;;;10.67;2.43;;;23.50;72.90;;;;;;4956353;29;20437;-76
2022/05/15 15:28:55;;;;;;;10.73;3.20;;;23.30;75.90;;;;;;4956182;29;20418;-73
2022/05/15 15:31:24;;;;;;;8.77;2.87;;;23.00;74.50;;;;;;4956232;29;20289;-76
2022/05/15 15:33:49;;;;;;;11.40;2.70;;;22.70;74.10;;;;;;4963157;28;20413;-76
2022/05/15 15:36:16;;;;;;;9.07;2.47;;;22.80;77.10;;;;;;4969008;28;20457;-73
2022/05/15 15:38:42;;;;;;;11.77;3.00;;;22.90;74.90;;;;;;4966598;28;20226;-76
2022/05/15 15:41:10;;;;;;;10.67;2.93;;;22.40;74.20;;;;;;4967746;28;20984;-76
2022/05/15 15:43:40;;;;;;;7.77;2.50;;;22.40;76.10;;;;;;4963528;28;20458;-75
2022/05/15 15:46:07;;;;;;;7.23;2.73;;;22.50;75.10;;;;;;4941959;28;21008;-75
2022/05/15 15:48:33;;;;;;;6.07;2.30;;;22.20;73.40;;;;;;4965347;28;20446;-76
2022/05/15 15:51:33;;;;;;;5.80;2.07;;;22.30;74.80;;;;;;4956140;29;20567;-76
2022/05/15 15:54:02;;;;;;;8.43;2.60;;;22.20;74.20;;;;;;4961938;28;20445;-76
2022/05/15 15:56:30;;;;;;;7.80;2.30;;;22.00;75.60;;;;;;4964227;28;21017;-77
2022/05/15 15:58:56;;;;;;;7.90;2.80;;;21.90;74.50;;;;;;4956929;28;20419;-77
2022/05/15 16:01:25;;;;;;;9.13;2.70;;;22.30;75.00;;;;;;4974495;28;21613;-76
2022/05/15 16:03:51;;;;;;;9.27;2.47;;;22.10;75.60;;;;;;4969613;28;20489;-76
2022/05/15 16:06:18;;;;;;;6.47;2.87;;;21.80;77.50;;;;;;4959561;28;20458;-78
2022/05/15 16:08:44;;;;;;;4.50;2.23;;;22.00;77.60;;;;;;4975828;28;20177;-77
2022/05/15 16:11:10;;;;;;;9.97;2.30;;;21.80;77.80;;;;;;4970830;28;20497;-77
2022/05/15 16:13:35;;;;;;;5.63;3.10;;;21.60;77.00;;;;;;4955809;29;20845;-76
2022/05/15 16:16:01;;;;;;;11.53;3.07;;;21.40;76.80;;;;;;4958142;29;20174;-76
2022/05/15 16:18:27;;;;;;;7.97;2.63;;;21.40;75.40;;;;;;4968554;28;20187;-77
2022/05/15 16:21:03;;;;;;;11.77;2.97;;;21.40;78.70;;;;;;4988466;28;20195;-76
2022/05/15 16:23:31;;;;;;;7.30;2.60;;;21.40;78.40;;;;;;4952003;28;20668;-77
2022/05/15 16:26:01;;;;;;;11.63;3.10;;;21.50;77.30;;;;;;4975084;28;20424;-77
2022/05/15 16:28:28;;;;;;;6.70;2.33;;;21.40;76.80;;;;;;4957182;28;20426;-76
2022/05/15 16:30:53;;;;;;;7.73;2.47;;;21.40;76.20;;;;;;4975011;28;20441;-75
2022/05/15 16:33:19;;;;;;;12.87;3.60;;;21.30;76.50;;;;;;4992567;28;20421;-76
2022/05/15 16:35:49;;;;;;;7.50;2.93;;;21.20;76.70;;;;;;4969784;28;20174;-77
2022/05/15 16:38:18;;;;;;;9.20;3.10;;;21.10;78.60;;;;;;4959043;28;20253;-77
2022/05/15 16:40:45;;;;;;;10.40;6.77;;;20.80;78.40;;;;;;4955158;29;20474;-77
2022/05/15 16:43:12;;;;;;;7.30;4.03;;;20.80;79.20;;;;;;4955996;29;20418;-77
2022/05/15 16:45:37;;;;;;;9.00;4.30;;;20.80;78.10;;;;;;4968057;28;20428;-78
2022/05/15 16:48:04;;;;;;;16.13;3.17;;;20.80;79.40;;;;;;4974208;28;20410;-77
2022/05/15 16:50:29;;;;;;;34.43;2.70;;;20.90;78.00;;;;;;4974272;28;20174;-76
2022/05/15 16:52:55;;;;;;;11.20;3.00;;;;;;;;;;4974143;28;20427;-76
2022/05/15 16:55:29;;;;;;;8.93;3.10;;;20.90;78.60;;;;;;4974147;28;20579;-76
2022/05/15 16:57:55;;;;;;;3.57;2.00;;;20.90;80.60;;;;;;4973881;28;20556;-76
2022/05/15 17:00:21;;;;;;;28.90;15.23;;;20.60;78.90;;;;;;4973996;28;20406;-77
2022/05/15 17:02:48;;;;;;;20.20;12.90;;;20.40;79.60;;;;;;4973814;28;20414;-76
2022/05/15 17:05:15;;;;;;;11.43;6.70;;;20.30;80.90;;;;;;4973906;28;20775;-76
2022/05/15 17:07:41;;;;;;;18.50;12.53;;;20.30;82.10;;;;;;4973600;28;20441;-75
2022/05/15 17:10:07;;;;;;;15.87;3.60;;;20.30;80.00;;;;;;4973687;28;21030;-77
2022/05/15 17:12:33;;;;;;;8.37;2.40;;;20.20;82.10;;;;;;4955535;28;20234;-77
2022/05/15 17:14:59;;;;;;;9.43;2.93;;;;;;;;;;4954274;28;20426;-75
2022/05/15 17:17:25;;;;;;;6.90;2.40;;;20.00;80.40;;;;;;4953203;29;20202;-77
2022/05/15 17:19:51;;;;;;;8.90;2.70;;;20.00;80.80;;;;;;4954290;29;20417;-75
2022/05/15 17:22:17;;;;;;;10.27;2.03;;;19.80;80.80;;;;;;4954223;28;20683;-75
2022/05/15 17:24:43;;;;;;;6.87;2.10;;;19.60;82.80;;;;;;4962701;28;20166;-75
2022/05/15 17:27:09;;;;;;;19.67;2.77;;;19.40;81.80;;;;;;4973508;28;20863;-75
2022/05/15 17:35:09;;;;;;;3.27;1.80;;;19.00;86.30;;;;;;4973859;28;20440;-75
2022/05/15 17:37:36;;;;;;;8.70;2.70;;;19.00;86.00;;;;;;4972986;28;20469;-76
2022/05/15 17:40:08;;;;;;;6.30;2.67;;;18.70;86.60;;;;;;4973505;28;20958;-76
2022/05/15 17:42:34;;;;;;;12.30;2.63;;;18.60;86.10;;;;;;4972024;28;20449;-76
2022/05/15 17:44:59;;;;;;;5.83;2.57;;;18.60;88.40;;;;;;4975480;28;20774;-75
2022/05/15 17:47:25;;;;;;;15.03;2.70;;;18.50;90.10;;;;;;4973723;28;20187;-77
2022/05/15 17:49:50;;;;;;;13.13;2.60;;;18.30;88.50;;;;;;4973866;28;20182;-76
2022/05/15 17:54:51;;;;;;;7.93;2.47;;;17.90;90.70;;;;;;5912487;23;20237;-78
2022/05/15 17:57:16;;;;;;;7.57;2.23;;;17.80;92.10;;;;;;4973267;28;20465;-78
2022/05/15 17:59:42;;;;;;;9.03;3.13;;;17.80;90.80;;;;;;4973239;28;20181;-79
2022/05/15 18:02:10;;;;;;;8.43;2.00;;;17.70;92.00;;;;;;4973590;28;20563;-74
2022/05/15 18:04:36;;;;;;;7.87;2.27;;;17.60;91.80;;;;;;4973289;28;20273;-74
2022/05/15 18:07:02;;;;;;;5.73;2.10;;;17.50;92.30;;;;;;4956179;28;20980;-78
2022/05/15 18:09:28;;;;;;;7.10;2.67;;;17.30;93.80;;;;;;4973577;28;20224;-77
2022/05/15 18:11:53;;;;;;;4.80;2.47;;;17.20;93.60;;;;;;4976435;28;20437;-76
2022/05/15 18:14:19;;;;;;;7.70;2.20;;;17.10;93.80;;;;;;4976664;28;20178;-78
2022/05/15 18:16:44;;;;;;;7.20;2.50;;;16.90;93.90;;;;;;4962901;28;20216;-78
2022/05/15 18:19:10;;;;;;;5.60;2.00;;;16.70;94.30;;;;;;4975167;28;20178;-77
2022/05/15 18:21:36;;;;;;;11.30;2.97;;;16.50;94.60;;;;;;4975003;28;20198;-78
2022/05/15 18:24:03;;;;;;;7.67;2.00;;;16.30;94.50;;;;;;4973491;28;20519;-77
2022/05/15 18:26:29;;;;;;;7.33;3.20;;;16.00;96.30;;;;;;4973152;28;20420;-76